Time;durP1;ratioP1;P1;durP2;ratioP2;P2;SDS_P1;SDS_P2;PMS_P1;PMS_P2;Temp;Humidity;BMP_temperature;BMP_pressure;BME280_temperature;BME280_humidity;BME280_pressure;Samples;Min_cycle;Max_cycle;Signal;HPM_P1;HPM_P2
2023/06/18 00:01:07;;;;;;;0.10;0.10;;;14.20;60.60;;;;;;5052853;28;20192;-47
2023/06/18 00:03:38;;;;;;;0.05;0.05;;;14.20;60.60;;;;;;5052885;28;20192;-48
2023/06/18 00:06:08;;;;;;;0.10;0.10;;;14.30;60.60;;;;;;5052926;28;20202;-48
2023/06/18 00:08:39;;;;;;;0.10;0.10;;;14.30;60.60;;;;;;5058869;28;20203;-47
2023/06/18 00:11:11;;;;;;;0.10;0.10;;;14.30;60.60;;;;;;5072512;28;20198;-47
2023/06/18 00:13:42;;;;;;;0.10;0.10;;;14.20;60.40;;;;;;5072796;28;20545;-47
2023/06/18 00:16:13;;;;;;;0.10;0.10;;;14.30;60.50;;;;;;5059725;28;20218;-48
2023/06/18 00:18:43;;;;;;;0.10;0.10;;;14.30;60.50;;;;;;5052237;28;20227;-47
2023/06/18 00:21:14;;;;;;;0.10;0.10;;;14.30;60.50;;;;;;5052355;28;20219;-47
2023/06/18 00:23:45;;;;;;;0.10;0.10;;;14.30;60.60;;;;;;5052652;28;20224;-49
2023/06/18 00:26:17;;;;;;;0.10;0.10;;;14.30;60.70;;;;;;5052458;28;20216;-47
2023/06/18 00:28:48;;;;;;;0.10;0.10;;;14.30;60.80;;;;;;5052105;28;20199;-47
2023/06/18 00:31:19;;;;;;;0.10;0.10;;;14.30;60.90;;;;;;5051771;28;20199;-47
2023/06/18 00:33:49;;;;;;;0.10;0.10;;;14.40;61.00;;;;;;5052253;28;20199;-48
2023/06/18 00:36:20;;;;;;;0.10;0.10;;;14.40;61.00;;;;;;5052334;28;20234;-48
2023/06/18 00:38:51;;;;;;;0.10;0.10;;;14.40;61.10;;;;;;5059879;28;20323;-48
2023/06/18 00:41:24;;;;;;;0.10;0.10;;;14.40;61.00;;;;;;5072450;28;20631;-48
2023/06/18 00:43:57;;;;;;;0.10;0.10;;;14.40;61.00;;;;;;5072225;28;20226;-49
2023/06/18 00:46:30;;;;;;;0.10;0.10;;;14.40;61.00;;;;;;5072074;28;20225;-49
2023/06/18 00:49:01;;;;;;;0.10;0.10;;;14.40;61.10;;;;;;5072045;28;20193;-47
2023/06/18 00:51:34;;;;;;;0.10;0.10;;;14.40;61.10;;;;;;5071825;28;20191;-47
2023/06/18 00:54:05;;;;;;;0.10;0.10;;;14.50;61.20;;;;;;5071944;28;20249;-51
2023/06/18 00:56:38;;;;;;;0.10;0.10;;;14.50;61.20;;;;;;5071712;28;20306;-47
2023/06/18 00:59:09;;;;;;;0.10;0.10;;;14.50;61.20;;;;;;5072024;28;20226;-48
2023/06/18 01:01:40;;;;;;;0.05;0.05;;;14.50;61.20;;;;;;5072053;28;20667;-49
2023/06/18 01:04:11;;;;;;;0.10;0.10;;;14.50;61.40;;;;;;5071972;28;20202;-49
2023/06/18 01:06:42;;;;;;;0.10;0.10;;;14.50;61.50;;;;;;5062985;28;20215;-48
2023/06/18 01:09:17;;;;;;;0.10;0.10;;;14.60;61.70;;;;;;5062492;28;20195;-50
2023/06/18 01:11:51;;;;;;;0.10;0.10;;;14.50;61.80;;;;;;5072008;28;20194;-51
2023/06/18 01:14:22;;;;;;;0.10;0.10;;;14.60;62.00;;;;;;5071730;28;20202;-47
2023/06/18 01:16:56;;;;;;;0.10;0.10;;;14.60;62.00;;;;;;5071499;28;20269;-47
2023/06/18 01:19:45;;;;;;;0.10;0.10;;;14.60;62.10;;;;;;5071523;28;20654;-49
2023/06/18 01:22:26;;;;;;;0.10;0.10;;;14.60;62.10;;;;;;5071271;28;20191;-50
2023/06/18 01:25:02;;;;;;;0.10;0.10;;;14.60;62.10;;;;;;5071145;28;20254;-48
2023/06/18 01:27:40;;;;;;;0.10;0.10;;;14.60;62.10;;;;;;5071373;28;20268;-48
2023/06/18 01:30:12;;;;;;;0.10;0.10;;;14.60;62.10;;;;;;5051347;28;20190;-48
2023/06/18 01:32:43;;;;;;;0.10;0.10;;;14.70;62.00;;;;;;5051079;28;20235;-52
2023/06/18 01:35:14;;;;;;;0.10;0.10;;;14.70;62.00;;;;;;5051413;28;20196;-52
2023/06/18 01:38:23;;;;;;;0.10;0.10;;;14.70;62.00;;;;;;5051210;28;20277;-51
2023/06/18 01:40:59;;;;;;;0.10;0.10;;;14.70;62.20;;;;;;5007451;28;20348;-51
2023/06/18 01:43:41;;;;;;;0.10;0.10;;;14.70;62.20;;;;;;5031742;28;20249;-52
2023/06/18 01:46:14;;;;;;;0.10;0.10;;;14.70;62.30;;;;;;5036096;28;20226;-50
2023/06/18 01:48:47;;;;;;;0.10;0.10;;;14.70;62.40;;;;;;5051736;28;20605;-52
2023/06/18 01:51:21;;;;;;;0.10;0.10;;;14.70;62.50;;;;;;5051450;28;20195;-52
2023/06/18 01:53:54;;;;;;;0.10;0.10;;;14.70;62.50;;;;;;5052129;28;20198;-52
2023/06/18 01:56:28;;;;;;;0.10;0.10;;;14.80;62.70;;;;;;5050940;28;20467;-52
2023/06/18 01:59:00;;;;;;;0.10;0.10;;;14.80;62.90;;;;;;5051231;28;20701;-53
2023/06/18 02:01:34;;;;;;;0.10;0.10;;;14.80;62.80;;;;;;5050808;28;20199;-50
2023/06/18 02:04:05;;;;;;;0.10;0.10;;;14.80;62.70;;;;;;5051118;28;20195;-48
2023/06/18 02:06:36;;;;;;;0.10;0.10;;;14.80;62.70;;;;;;5050898;28;20234;-51
2023/06/18 02:09:07;;;;;;;0.10;0.10;;;14.80;62.60;;;;;;5061178;28;20694;-52
2023/06/18 02:11:37;;;;;;;0.10;0.10;;;14.80;62.60;;;;;;5052958;28;20275;-53
2023/06/18 02:14:10;;;;;;;0.10;0.10;;;14.80;62.50;;;;;;5050901;28;20200;-51
2023/06/18 02:16:40;;;;;;;0.10;0.10;;;14.90;62.60;;;;;;5050684;28;20687;-49
2023/06/18 02:19:11;;;;;;;0.10;0.10;;;14.80;62.50;;;;;;5050550;28;20238;-51
2023/06/18 02:21:42;;;;;;;0.10;0.10;;;14.90;62.60;;;;;;5050593;28;20200;-49
2023/06/18 02:24:13;;;;;;;0.10;0.10;;;14.90;62.50;;;;;;5050699;28;20673;-49
2023/06/18 02:26:43;;;;;;;0.10;0.10;;;14.90;62.50;;;;;;5050692;28;20722;-51
2023/06/18 02:29:16;;;;;;;0.17;0.17;;;14.90;62.70;;;;;;5050581;28;20200;-51
2023/06/18 02:31:46;;;;;;;0.10;0.10;;;14.90;62.80;;;;;;5050390;28;20253;-52
2023/06/18 02:34:18;;;;;;;0.10;0.10;;;14.90;62.80;;;;;;5050928;28;20199;-56
2023/06/18 02:36:49;;;;;;;0.10;0.10;;;14.90;62.90;;;;;;5050823;28;20211;-51
2023/06/18 02:39:20;;;;;;;0.10;0.10;;;14.90;63.00;;;;;;5062186;28;20261;-48
2023/06/18 02:41:51;;;;;;;0.10;0.10;;;14.90;62.90;;;;;;5070860;28;20195;-52
2023/06/18 02:44:24;;;;;;;0.10;0.10;;;14.90;62.70;;;;;;5073159;28;20195;-52
2023/06/18 02:46:55;;;;;;;0.10;0.10;;;15.00;62.80;;;;;;5074490;28;20551;-53
2023/06/18 02:49:25;;;;;;;0.10;0.10;;;15.00;62.70;;;;;;5074289;28;20199;-51
2023/06/18 02:51:56;;;;;;;0.10;0.10;;;15.00;62.70;;;;;;5074183;28;20198;-52
2023/06/18 02:54:26;;;;;;;0.03;0.03;;;15.00;63.40;;;;;;5074851;28;20203;-51
2023/06/18 02:56:57;;;;;;;0.10;0.10;;;15.00;62.60;;;;;;5073915;28;20219;-53
2023/06/18 02:59:30;;;;;;;0.10;0.10;;;15.00;62.60;;;;;;5073770;28;20226;-51
2023/06/18 03:02:00;;;;;;;0.10;0.10;;;15.00;62.50;;;;;;5073855;28;20209;-52
2023/06/18 03:04:31;;;;;;;0.10;0.10;;;15.00;62.60;;;;;;5073973;28;20204;-50
2023/06/18 03:07:03;;;;;;;0.10;0.10;;;15.00;63.30;;;;;;5073946;28;20222;-49
2023/06/18 03:09:33;;;;;;;0.13;0.13;;;15.00;62.60;;;;;;5073798;28;20533;-53
2023/06/18 03:12:04;;;;;;;0.10;0.10;;;15.00;62.70;;;;;;5073980;28;20202;-51
2023/06/18 03:14:36;;;;;;;0.10;0.10;;;15.00;62.70;;;;;;5053895;28;20202;-53
2023/06/18 03:17:07;;;;;;;0.10;0.10;;;15.10;62.90;;;;;;5053451;28;20227;-50
2023/06/18 03:19:38;;;;;;;0.13;0.13;;;15.00;62.90;;;;;;5053437;28;20690;-49
2023/06/18 03:22:09;;;;;;;0.08;0.08;;;15.00;63.00;;;;;;5053861;28;20195;-51
2023/06/18 03:24:40;;;;;;;0.10;0.10;;;15.10;63.00;;;;;;5053781;28;20215;-52
2023/06/18 03:27:11;;;;;;;0.10;0.10;;;15.10;62.90;;;;;;5053862;28;20215;-54
2023/06/18 03:29:44;;;;;;;0.10;0.10;;;15.00;62.70;;;;;;5053655;28;20196;-52
2023/06/18 03:32:14;;;;;;;0.00;0.00;;;15.10;62.80;;;;;;5053119;28;20191;-52
2023/06/18 03:34:48;;;;;;;0.10;0.10;;;15.10;62.80;;;;;;5053437;28;20195;-51
2023/06/18 03:37:19;;;;;;;0.10;0.10;;;15.10;62.70;;;;;;5053602;28;20220;-53
2023/06/18 03:39:49;;;;;;;0.10;0.10;;;15.10;62.70;;;;;;5069293;28;20700;-54
2023/06/18 03:42:20;;;;;;;0.10;0.10;;;15.10;62.70;;;;;;5073640;28;20682;-55
2023/06/18 03:44:53;;;;;;;0.10;0.10;;;15.10;62.80;;;;;;5073090;28;20701;-53
2023/06/18 03:47:24;;;;;;;0.10;0.10;;;15.10;62.80;;;;;;5073015;28;20229;-53
2023/06/18 03:49:54;;;;;;;0.10;0.10;;;15.10;62.80;;;;;;5072647;28;20590;-54
2023/06/18 03:52:25;;;;;;;0.10;0.10;;;15.10;62.80;;;;;;5056800;28;20655;-50
2023/06/18 03:54:56;;;;;;;0.10;0.10;;;15.10;63.00;;;;;;5053010;28;20674;-56
2023/06/18 03:57:27;;;;;;;0.10;0.10;;;15.10;63.10;;;;;;5052951;28;20215;-56
2023/06/18 03:59:59;;;;;;;0.10;0.10;;;15.10;63.10;;;;;;5052972;28;20224;-55
2023/06/18 04:02:30;;;;;;;0.10;0.10;;;15.10;63.90;;;;;;5053249;28;20195;-52
2023/06/18 04:05:01;;;;;;;0.10;0.10;;;15.10;63.20;;;;;;5052724;28;20200;-52
2023/06/18 04:07:32;;;;;;;0.03;0.03;;;15.10;63.10;;;;;;5052869;28;20687;-54
2023/06/18 04:10:02;;;;;;;0.10;0.10;;;15.10;63.10;;;;;;5070213;28;20199;-55
2023/06/18 04:12:33;;;;;;;0.10;0.10;;;15.20;63.10;;;;;;5067835;28;20199;-56
2023/06/18 04:15:06;;;;;;;0.10;0.10;;;15.20;63.00;;;;;;5052693;28;20192;-51
2023/06/18 04:17:43;;;;;;;0.00;0.00;;;15.20;63.00;;;;;;5052670;28;20734;-56
2023/06/18 04:20:14;;;;;;;0.10;0.10;;;15.20;63.00;;;;;;5052567;28;20222;-53
2023/06/18 04:22:45;;;;;;;0.10;0.10;;;15.20;63.20;;;;;;5052868;28;20539;-52
2023/06/18 04:25:16;;;;;;;0.10;0.10;;;15.20;63.20;;;;;;5052578;28;20655;-52
2023/06/18 04:27:46;;;;;;;0.10;0.10;;;15.20;63.10;;;;;;5052672;28;20675;-55
2023/06/18 04:30:19;;;;;;;0.10;0.10;;;15.20;63.10;;;;;;5052622;28;20199;-51
2023/06/18 04:32:49;;;;;;;0.10;0.10;;;15.20;63.20;;;;;;5052443;28;20222;-55
2023/06/18 04:35:23;;;;;;;0.10;0.10;;;15.20;63.30;;;;;;5052333;28;20195;-53
2023/06/18 04:37:54;;;;;;;0.10;0.10;;;15.20;63.40;;;;;;5051421;28;20210;-52
2023/06/18 04:40:24;;;;;;;0.10;0.10;;;15.20;63.40;;;;;;5071481;28;20225;-55
2023/06/18 04:42:55;;;;;;;0.10;0.10;;;15.20;63.70;;;;;;5072196;28;20624;-58
2023/06/18 04:45:28;;;;;;;0.10;0.10;;;15.20;63.90;;;;;;5071914;28;20210;-48
2023/06/18 04:47:58;;;;;;;0.10;0.10;;;15.30;63.90;;;;;;5071688;28;20218;-49
2023/06/18 04:50:29;;;;;;;0.10;0.10;;;15.20;63.70;;;;;;5071858;28;20555;-49
2023/06/18 04:52:59;;;;;;;0.00;0.00;;;15.20;63.70;;;;;;5071958;28;20191;-49
2023/06/18 04:55:30;;;;;;;0.10;0.10;;;15.30;63.70;;;;;;5036942;28;20691;-51
2023/06/18 04:58:01;;;;;;;0.15;0.15;;;15.30;63.60;;;;;;5031671;28;20219;-48
2023/06/18 05:00:33;;;;;;;0.10;0.10;;;15.30;63.60;;;;;;5049769;28;20230;-56
2023/06/18 05:03:05;;;;;;;0.10;0.10;;;15.30;63.50;;;;;;5051621;28;20202;-52
2023/06/18 05:05:35;;;;;;;0.10;0.10;;;15.30;63.40;;;;;;5051330;28;20222;-49
2023/06/18 05:08:06;;;;;;;0.10;0.10;;;15.30;63.40;;;;;;5052810;28;20222;-52
2023/06/18 05:10:37;;;;;;;0.15;0.15;;;15.30;63.50;;;;;;5070624;28;20244;-49
2023/06/18 05:13:07;;;;;;;0.10;0.10;;;15.30;63.40;;;;;;5050851;28;20220;-48
2023/06/18 05:15:40;;;;;;;0.10;0.10;;;15.30;63.50;;;;;;5051755;28;20195;-49
2023/06/18 05:18:10;;;;;;;0.10;0.10;;;15.30;63.60;;;;;;5051250;28;20216;-50
2023/06/18 05:20:41;;;;;;;0.10;0.10;;;15.30;63.70;;;;;;5051312;28;20246;-50
2023/06/18 05:23:12;;;;;;;0.20;0.20;;;15.30;63.70;;;;;;5051500;28;20195;-49
2023/06/18 05:25:42;;;;;;;0.10;0.10;;;15.30;63.80;;;;;;5050894;28;20210;-54
2023/06/18 05:28:13;;;;;;;0.10;0.10;;;15.30;63.80;;;;;;5050911;28;20219;-51
2023/06/18 05:30:46;;;;;;;0.10;0.10;;;15.40;63.90;;;;;;5051276;28;20198;-51
2023/06/18 05:33:17;;;;;;;0.00;0.00;;;15.40;63.70;;;;;;5051576;28;20191;-50
2023/06/18 05:35:48;;;;;;;0.10;0.10;;;15.40;63.60;;;;;;5050881;28;20192;-52
2023/06/18 05:38:18;;;;;;;0.10;0.10;;;15.40;63.60;;;;;;5054761;28;20199;-49
2023/06/18 05:40:49;;;;;;;0.03;0.03;;;15.40;63.50;;;;;;5071596;28;20234;-50
2023/06/18 05:43:20;;;;;;;0.08;0.08;;;15.40;63.50;;;;;;5070829;28;20195;-48
2023/06/18 05:45:52;;;;;;;0.10;0.10;;;15.40;63.50;;;;;;5071368;28;20661;-52
2023/06/18 05:48:23;;;;;;;0.10;0.10;;;15.40;63.40;;;;;;5071272;28;20198;-50
2023/06/18 05:50:53;;;;;;;0.10;0.10;;;15.40;63.40;;;;;;5050585;28;20187;-48
2023/06/18 05:53:24;;;;;;;0.10;0.10;;;15.40;63.40;;;;;;5051219;28;20203;-51
2023/06/18 05:55:54;;;;;;;0.10;0.10;;;15.40;63.40;;;;;;5051656;28;20680;-49
2023/06/18 05:58:25;;;;;;;0.00;0.00;;;15.40;63.50;;;;;;5050865;28;20191;-52
2023/06/18 06:00:58;;;;;;;0.00;0.00;;;15.50;63.60;;;;;;5051183;28;20584;-54
2023/06/18 06:03:29;;;;;;;0.10;0.10;;;15.50;63.60;;;;;;5051075;28;20192;-52
2023/06/18 06:06:01;;;;;;;0.10;0.10;;;15.50;63.70;;;;;;5051100;28;20195;-54
2023/06/18 06:08:32;;;;;;;0.08;0.08;;;15.40;63.60;;;;;;5056619;28;20286;-50
2023/06/18 06:11:03;;;;;;;0.10;0.10;;;15.40;63.60;;;;;;5064994;28;20192;-53
2023/06/18 06:13:34;;;;;;;0.10;0.10;;;15.50;63.60;;;;;;5050540;28;20203;-50
2023/06/18 06:16:06;;;;;;;0.10;0.10;;;15.50;63.50;;;;;;5051069;28;20202;-50
2023/06/18 06:18:37;;;;;;;0.10;0.10;;;15.50;63.50;;;;;;5053837;28;20198;-50
2023/06/18 06:21:07;;;;;;;0.00;0.00;;;15.50;63.50;;;;;;5054772;28;20234;-55
2023/06/18 06:23:38;;;;;;;0.10;0.10;;;15.50;63.40;;;;;;5054903;28;20199;-49
2023/06/18 06:26:09;;;;;;;0.10;0.10;;;15.50;63.40;;;;;;5054443;28;20207;-54
2023/06/18 06:28:40;;;;;;;0.10;0.10;;;15.50;63.30;;;;;;5054080;28;20231;-51
2023/06/18 06:31:13;;;;;;;0.10;0.10;;;15.50;63.40;;;;;;5054461;28;20199;-54
2023/06/18 06:33:43;;;;;;;0.10;0.10;;;15.50;63.40;;;;;;5053783;28;20187;-51
2023/06/18 06:36:14;;;;;;;0.00;0.00;;;15.50;63.40;;;;;;5054133;28;20215;-52
2023/06/18 06:38:45;;;;;;;0.10;0.10;;;15.50;63.50;;;;;;5061430;28;20611;-53
2023/06/18 06:41:15;;;;;;;0.10;0.10;;;15.50;63.50;;;;;;5074376;28;20229;-49
2023/06/18 06:43:46;;;;;;;0.10;0.10;;;15.50;63.60;;;;;;5073585;28;20210;-52
2023/06/18 06:46:19;;;;;;;0.10;0.10;;;15.60;63.70;;;;;;5073830;28;20225;-52
2023/06/18 06:48:49;;;;;;;0.10;0.10;;;15.50;63.80;;;;;;5074528;28;20663;-49
2023/06/18 06:51:20;;;;;;;0.10;0.10;;;15.60;63.80;;;;;;5074493;28;20252;-56
2023/06/18 06:53:55;;;;;;;0.15;0.15;;;15.60;63.80;;;;;;5073913;28;20601;-49
2023/06/18 06:56:25;;;;;;;0.10;0.10;;;15.60;63.70;;;;;;5073652;28;20575;-51
2023/06/18 06:58:56;;;;;;;0.10;0.10;;;15.60;63.70;;;;;;5074048;28;20566;-52
2023/06/18 07:01:29;;;;;;;0.10;0.10;;;15.60;63.80;;;;;;5074107;28;20225;-52
2023/06/18 07:03:59;;;;;;;0.00;0.00;;;15.60;63.80;;;;;;5074185;28;20539;-51
2023/06/18 07:06:30;;;;;;;0.10;0.10;;;15.60;63.70;;;;;;5073958;28;20219;-51
2023/06/18 07:09:03;;;;;;;0.10;0.10;;;15.60;63.80;;;;;;5074302;28;20199;-51
2023/06/18 07:11:33;;;;;;;0.10;0.10;;;15.60;63.90;;;;;;5074135;28;20662;-51
2023/06/18 07:14:04;;;;;;;0.10;0.10;;;15.60;64.00;;;;;;5066845;28;20230;-56
2023/06/18 07:16:37;;;;;;;0.10;0.10;;;15.60;64.10;;;;;;5053150;28;20306;-58
2023/06/18 07:19:08;;;;;;;0.10;0.10;;;15.60;64.10;;;;;;5062484;28;20563;-58
2023/06/18 07:21:38;;;;;;;0.13;0.13;;;15.70;64.20;;;;;;5053128;28;20227;-54
2023/06/18 07:24:09;;;;;;;0.10;0.10;;;15.70;64.30;;;;;;5053585;28;20191;-56
2023/06/18 07:26:41;;;;;;;0.10;0.10;;;15.70;64.30;;;;;;5052638;28;20223;-52
2023/06/18 07:29:11;;;;;;;0.10;0.10;;;15.70;64.20;;;;;;5052266;28;20196;-51
2023/06/18 07:31:44;;;;;;;0.03;0.03;;;15.70;64.20;;;;;;5052491;28;20208;-51
2023/06/18 07:34:16;;;;;;;0.10;0.10;;;15.70;64.20;;;;;;5052671;28;20191;-53
2023/06/18 07:36:46;;;;;;;0.10;0.10;;;15.70;64.10;;;;;;5052027;28;20219;-55
2023/06/18 07:39:17;;;;;;;0.10;0.10;;;15.80;64.20;;;;;;5057884;28;20566;-54
2023/06/18 07:41:49;;;;;;;0.15;0.15;;;15.80;64.20;;;;;;5051909;28;20281;-55
2023/06/18 07:44:20;;;;;;;0.10;0.10;;;15.70;64.10;;;;;;5052177;28;20187;-56
2023/06/18 07:46:52;;;;;;;0.17;0.17;;;15.70;64.00;;;;;;5052936;28;20702;-54
2023/06/18 07:49:23;;;;;;;0.10;0.10;;;15.70;64.10;;;;;;5052128;28;20282;-54
2023/06/18 07:51:54;;;;;;;0.00;0.00;;;15.80;64.20;;;;;;5052026;28;20199;-52
2023/06/18 07:54:24;;;;;;;0.10;0.10;;;15.80;64.10;;;;;;5054666;28;20203;-54
2023/06/18 07:56:55;;;;;;;0.10;0.10;;;15.70;64.10;;;;;;5066094;28;20222;-52
2023/06/18 07:59:26;;;;;;;0.10;0.10;;;15.80;64.50;;;;;;5061897;28;20192;-50
2023/06/18 08:01:58;;;;;;;0.10;0.10;;;15.80;64.60;;;;;;5052157;28;20226;-53
2023/06/18 08:04:29;;;;;;;0.10;0.10;;;15.80;64.60;;;;;;5051537;28;20191;-54
2023/06/18 08:06:59;;;;;;;0.10;0.10;;;15.80;64.60;;;;;;5051816;28;20219;-56
2023/06/18 08:09:30;;;;;;;0.10;0.10;;;15.80;64.70;;;;;;5050729;28;20191;-53
2023/06/18 08:12:01;;;;;;;0.10;0.10;;;15.90;64.60;;;;;;5051659;28;20200;-56
2023/06/18 08:14:31;;;;;;;0.10;0.10;;;15.80;64.60;;;;;;5052287;28;20195;-54
2023/06/18 08:17:04;;;;;;;0.10;0.10;;;15.90;64.50;;;;;;5051855;28;20219;-56
2023/06/18 08:19:35;;;;;;;0.03;0.03;;;15.80;64.50;;;;;;5051183;28;20567;-50
2023/06/18 08:22:05;;;;;;;0.10;0.10;;;15.90;64.50;;;;;;5051234;28;20281;-57
2023/06/18 08:24:36;;;;;;;0.10;0.10;;;15.90;64.50;;;;;;5051337;28;20249;-55
2023/06/18 08:27:07;;;;;;;0.10;0.10;;;15.90;64.60;;;;;;5051232;28;20691;-56
2023/06/18 08:29:38;;;;;;;0.10;0.10;;;15.90;64.60;;;;;;5051712;28;20191;-56
2023/06/18 08:32:11;;;;;;;0.10;0.10;;;15.90;64.70;;;;;;5052123;28;20194;-52
2023/06/18 08:34:43;;;;;;;0.10;0.10;;;15.90;64.70;;;;;;5050901;28;20198;-56
2023/06/18 08:37:14;;;;;;;0.10;0.10;;;15.90;64.70;;;;;;5051942;28;20306;-55
2023/06/18 08:39:44;;;;;;;0.10;0.10;;;15.90;64.70;;;;;;5060623;28;20670;-55
2023/06/18 08:42:20;;;;;;;0.10;0.10;;;15.90;64.50;;;;;;5049223;28;20219;-53
2023/06/18 08:44:53;;;;;;;0.10;0.10;;;15.90;64.50;;;;;;5051703;28;20274;-55
2023/06/18 08:47:29;;;;;;;0.10;0.10;;;15.90;64.40;;;;;;5070851;28;20269;-54
2023/06/18 08:50:01;;;;;;;0.10;0.10;;;15.90;64.50;;;;;;5063165;28;20211;-52
2023/06/18 08:52:32;;;;;;;0.10;0.10;;;16.00;64.50;;;;;;5050722;28;20567;-51
2023/06/18 08:55:07;;;;;;;0.00;0.00;;;15.90;64.40;;;;;;5049877;28;20862;-51
2023/06/18 08:57:45;;;;;;;0.03;0.03;;;16.00;64.40;;;;;;5049149;28;20222;-52
2023/06/18 09:00:16;;;;;;;0.10;0.10;;;16.00;64.60;;;;;;5049686;28;20344;-52
2023/06/18 09:02:50;;;;;;;0.03;0.03;;;16.00;65.00;;;;;;5049264;28;20679;-54
2023/06/18 09:05:22;;;;;;;0.00;0.00;;;16.00;65.70;;;;;;5049299;28;20206;-53
2023/06/18 09:07:52;;;;;;;0.10;0.10;;;16.00;65.60;;;;;;5049226;28;20215;-52
2023/06/18 09:10:26;;;;;;;0.10;0.10;;;16.00;65.50;;;;;;5053847;28;20665;-51
2023/06/18 09:12:56;;;;;;;0.00;0.00;;;16.10;65.40;;;;;;5061093;28;20225;-51
2023/06/18 09:15:27;;;;;;;0.00;0.00;;;16.10;65.30;;;;;;5060767;28;20278;-49
2023/06/18 09:18:00;;;;;;;0.10;0.10;;;16.10;65.30;;;;;;5050451;28;20302;-49
2023/06/18 09:20:31;;;;;;;0.05;0.05;;;16.10;65.20;;;;;;5051355;28;20580;-51
2023/06/18 09:23:08;;;;;;;0.00;0.00;;;16.10;65.10;;;;;;5051593;28;20666;-57
2023/06/18 09:25:40;;;;;;;0.03;0.03;;;16.10;65.00;;;;;;5051019;28;20261;-54
2023/06/18 09:28:10;;;;;;;0.10;0.10;;;16.10;64.90;;;;;;5051227;28;20219;-54
2023/06/18 09:30:51;;;;;;;0.00;0.00;;;16.20;65.00;;;;;;5050646;28;20195;-57
2023/06/18 09:33:39;;;;;;;0.10;0.10;;;16.20;64.90;;;;;;5051476;28;20304;-55
2023/06/18 09:36:11;;;;;;;0.00;0.00;;;16.20;64.90;;;;;;5050572;28;20224;-53
2023/06/18 09:38:42;;;;;;;0.10;0.10;;;16.20;64.90;;;;;;5057891;28;20198;-54
2023/06/18 09:41:18;;;;;;;0.10;0.10;;;16.20;65.00;;;;;;5071260;28;20226;-59
2023/06/18 09:43:50;;;;;;;0.10;0.10;;;16.20;64.90;;;;;;5071508;28;20241;-56
2023/06/18 09:46:25;;;;;;;0.00;0.00;;;16.20;64.90;;;;;;5071276;28;20222;-53
2023/06/18 09:48:57;;;;;;;0.05;0.05;;;16.20;65.00;;;;;;5071274;28;20202;-54
2023/06/18 09:51:29;;;;;;;0.10;0.10;;;16.20;65.00;;;;;;5071408;28;20202;-56
2023/06/18 09:54:00;;;;;;;0.10;0.10;;;16.20;65.00;;;;;;5074732;28;20191;-55
2023/06/18 09:56:31;;;;;;;0.10;0.10;;;16.20;65.00;;;;;;5074943;28;20686;-58
2023/06/18 09:59:03;;;;;;;0.10;0.10;;;16.20;65.00;;;;;;5075852;28;20587;-58
2023/06/18 10:01:47;;;;;;;0.10;0.10;;;16.20;65.00;;;;;;5075122;28;20656;-55
2023/06/18 10:04:20;;;;;;;0.10;0.10;;;16.20;64.90;;;;;;5074971;28;20241;-60
2023/06/18 10:06:54;;;;;;;0.10;0.10;;;16.20;64.90;;;;;;5065044;28;20211;-57
2023/06/18 10:09:27;;;;;;;0.10;0.10;;;16.20;64.90;;;;;;5067490;28;20202;-54
2023/06/18 10:11:59;;;;;;;0.00;0.00;;;16.20;64.80;;;;;;5074994;28;20194;-59
2023/06/18 10:14:32;;;;;;;0.10;0.10;;;16.20;64.90;;;;;;5075182;28;20278;-55
2023/06/18 10:17:09;;;;;;;0.10;0.10;;;16.20;64.80;;;;;;5074838;28;20221;-57
2023/06/18 10:19:49;;;;;;;0.10;0.10;;;16.20;64.80;;;;;;5074449;28;20194;-58
2023/06/18 10:22:21;;;;;;;0.00;0.00;;;16.20;64.70;;;;;;5074281;28;20226;-58
2023/06/18 10:24:57;;;;;;;0.10;0.10;;;16.20;64.60;;;;;;5074438;28;20252;-57
2023/06/18 10:27:29;;;;;;;0.00;0.00;;;16.20;64.60;;;;;;5074339;28;20218;-57
2023/06/18 10:30:00;;;;;;;0.10;0.10;;;16.20;64.70;;;;;;5074622;28;20540;-56
2023/06/18 10:32:31;;;;;;;0.10;0.10;;;16.20;64.70;;;;;;5074772;28;20210;-55
2023/06/18 10:35:09;;;;;;;0.10;0.10;;;16.20;64.60;;;;;;5074335;28;20228;-56
2023/06/18 10:37:41;;;;;;;0.00;0.00;;;16.20;64.60;;;;;;5071663;28;20264;-56
2023/06/18 10:40:13;;;;;;;0.03;0.03;;;16.20;64.60;;;;;;5068386;28;20651;-52
2023/06/18 10:42:43;;;;;;;0.00;0.00;;;16.20;65.30;;;;;;5054482;28;20722;-53
2023/06/18 10:45:15;;;;;;;0.10;0.10;;;16.20;64.50;;;;;;5054537;28;20204;-55
2023/06/18 10:47:46;;;;;;;0.10;0.10;;;16.30;64.50;;;;;;5054733;28;20219;-54
2023/06/18 10:50:19;;;;;;;0.10;0.10;;;16.20;64.50;;;;;;5054470;28;20679;-56
2023/06/18 10:52:51;;;;;;;0.00;0.00;;;16.20;64.50;;;;;;5054497;28;20557;-56
2023/06/18 10:55:32;;;;;;;0.10;0.10;;;16.30;64.60;;;;;;5054368;28;20200;-56
2023/06/18 10:58:06;;;;;;;0.10;0.10;;;16.30;64.60;;;;;;5054531;28;20269;-57
2023/06/18 11:00:38;;;;;;;0.10;0.10;;;16.30;64.60;;;;;;5054014;28;20206;-57
2023/06/18 11:03:14;;;;;;;0.10;0.10;;;16.30;64.60;;;;;;5054062;28;20223;-57
2023/06/18 11:05:49;;;;;;;0.00;0.00;;;16.30;64.70;;;;;;5053340;28;20199;-55
2023/06/18 11:08:27;;;;;;;0.10;0.10;;;16.30;64.70;;;;;;5057374;28;20210;-58
2023/06/18 11:11:06;;;;;;;0.10;0.10;;;16.30;64.70;;;;;;5073966;28;20736;-58
2023/06/18 11:13:40;;;;;;;0.00;0.00;;;16.30;64.80;;;;;;5074059;28;20647;-59
2023/06/18 11:16:17;;;;;;;0.10;0.10;;;16.30;64.80;;;;;;5073956;28;20194;-55
2023/06/18 11:18:48;;;;;;;0.10;0.10;;;16.30;64.80;;;;;;5074683;28;20201;-58
2023/06/18 11:21:22;;;;;;;0.10;0.10;;;16.30;64.80;;;;;;5073113;28;20604;-54
2023/06/18 11:23:52;;;;;;;0.05;0.05;;;16.30;64.80;;;;;;5063713;28;20195;-54
2023/06/18 11:26:23;;;;;;;0.08;0.08;;;16.30;64.70;;;;;;5053434;28;20219;-58
2023/06/18 11:28:54;;;;;;;0.10;0.10;;;16.30;64.70;;;;;;5053540;28;20207;-56
2023/06/18 11:31:33;;;;;;;0.10;0.10;;;16.30;64.70;;;;;;5053541;28;20226;-54
2023/06/18 11:34:08;;;;;;;0.08;0.08;;;16.30;64.70;;;;;;5053637;28;20238;-55
2023/06/18 11:36:42;;;;;;;0.00;0.00;;;16.30;64.70;;;;;;5053642;28;20259;-57
2023/06/18 11:39:15;;;;;;;0.10;0.10;;;16.30;64.70;;;;;;5064337;28;20199;-56
2023/06/18 11:41:46;;;;;;;0.10;0.10;;;16.30;64.80;;;;;;5073169;28;20222;-54
2023/06/18 11:44:17;;;;;;;0.03;0.03;;;16.30;64.80;;;;;;5066516;28;20188;-55
2023/06/18 11:46:47;;;;;;;0.10;0.10;;;16.30;64.80;;;;;;5053863;28;20560;-57
2023/06/18 11:49:18;;;;;;;0.00;0.00;;;16.30;64.90;;;;;;5053184;28;20592;-57
2023/06/18 11:51:51;;;;;;;0.10;0.10;;;16.30;64.90;;;;;;5052999;28;20278;-56
2023/06/18 11:54:21;;;;;;;0.03;0.03;;;16.30;64.90;;;;;;5052941;28;20202;-57
2023/06/18 11:56:55;;;;;;;0.10;0.10;;;16.30;64.80;;;;;;5052772;28;20690;-56
2023/06/18 11:59:26;;;;;;;0.03;0.03;;;16.30;64.80;;;;;;5053948;28;20223;-54
2023/06/18 12:01:57;;;;;;;0.10;0.10;;;16.30;64.80;;;;;;5052967;28;20622;-59
2023/06/18 12:04:32;;;;;;;0.03;0.03;;;16.30;64.80;;;;;;5052454;28;20647;-57
2023/06/18 12:07:05;;;;;;;0.05;0.05;;;16.30;64.70;;;;;;5052374;28;20619;-58
2023/06/18 12:09:36;;;;;;;0.10;0.10;;;16.30;64.70;;;;;;5066854;28;20203;-58
2023/06/18 12:12:16;;;;;;;0.10;0.10;;;16.30;64.70;;;;;;5072853;28;20313;-57
2023/06/18 12:14:54;;;;;;;0.00;0.00;;;16.30;64.60;;;;;;5067098;28;20553;-58
2023/06/18 12:17:32;;;;;;;0.10;0.10;;;16.30;64.70;;;;;;5052530;28;20682;-52
2023/06/18 12:20:10;;;;;;;0.10;0.10;;;16.30;64.80;;;;;;5052983;28;20206;-56
2023/06/18 12:22:43;;;;;;;0.00;0.00;;;16.30;64.90;;;;;;5052713;28;20273;-59
2023/06/18 12:25:15;;;;;;;0.03;0.03;;;16.30;65.00;;;;;;5052668;28;20261;-54
2023/06/18 12:27:48;;;;;;;0.10;0.10;;;16.30;65.10;;;;;;5052548;28;20207;-55
2023/06/18 12:30:18;;;;;;;0.13;0.13;;;16.30;65.10;;;;;;5052331;28;20290;-53
2023/06/18 12:33:06;;;;;;;0.10;0.10;;;16.30;65.10;;;;;;5052036;28;20203;-58
2023/06/18 12:35:40;;;;;;;0.10;0.10;;;16.30;65.10;;;;;;5052529;28;20714;-58
2023/06/18 12:38:13;;;;;;;0.10;0.10;;;16.30;65.10;;;;;;5054527;28;20305;-53
2023/06/18 12:40:50;;;;;;;0.05;0.05;;;16.40;65.20;;;;;;5071825;28;20677;-55
2023/06/18 12:43:22;;;;;;;0.10;0.10;;;16.30;65.20;;;;;;5071713;28;20245;-52
2023/06/18 12:45:53;;;;;;;0.00;0.00;;;16.30;65.10;;;;;;5072048;28;20751;-55
2023/06/18 12:48:24;;;;;;;0.10;0.10;;;16.30;65.00;;;;;;5072173;28;20194;-55
2023/06/18 12:50:56;;;;;;;0.00;0.00;;;16.30;65.00;;;;;;5054024;28;20195;-56
2023/06/18 12:53:30;;;;;;;0.00;0.00;;;16.30;65.00;;;;;;5052040;28;20192;-55
2023/06/18 12:56:02;;;;;;;0.10;0.10;;;16.30;65.00;;;;;;5051910;28;20202;-54
2023/06/18 12:58:34;;;;;;;0.10;0.10;;;16.30;65.00;;;;;;5052310;28;20192;-57
2023/06/18 13:01:05;;;;;;;0.08;0.08;;;16.30;65.00;;;;;;5051628;28;20199;-57
2023/06/18 13:03:36;;;;;;;0.00;0.00;;;16.30;65.00;;;;;;5051470;28;20474;-58
2023/06/18 13:06:07;;;;;;;0.10;0.10;;;16.30;65.00;;;;;;5051775;28;20264;-56
2023/06/18 13:08:40;;;;;;;0.10;0.10;;;16.30;65.10;;;;;;5057757;28;20194;-54
2023/06/18 13:11:10;;;;;;;0.10;0.10;;;16.40;65.10;;;;;;5071766;28;20217;-57
2023/06/18 13:13:41;;;;;;;0.10;0.10;;;16.30;65.10;;;;;;5071939;28;20646;-58